Time;durP1;ratioP1;P1;durP2;ratioP2;P2;SDS_P1;SDS_P2;PMS_P1;PMS_P2;Temp;Humidity;BMP_temperature;BMP_pressure;BME280_temperature;BME280_humidity;BME280_pressure;Samples;Min_cycle;Max_cycle;Signal;HPM_P1;HPM_P2
2022/08/02 00:01:51;;;;;;;11.17;4.80;;;22.90;66.10;;;;;;4996280;28;20432;-74
2022/08/02 00:04:17;;;;;;;15.47;5.67;;;;;;;;;;4999313;28;20464;-74
2022/08/02 00:06:43;;;;;;;14.57;5.30;;;;;;;;;;4991521;28;20435;-74
2022/08/02 00:09:09;;;;;;;14.70;5.50;;;;;;;;;;4999818;28;20424;-74
2022/08/02 00:11:35;;;;;;;14.60;5.00;;;;;;;;;;4999529;28;20427;-74
2022/08/02 00:14:01;;;;;;;18.60;5.23;;;;;;;;;;4992117;28;20952;-74
2022/08/02 00:16:27;;;;;;;14.13;5.10;;;;;;;;;;4991915;28;20455;-74
2022/08/02 00:18:53;;;;;;;14.13;5.30;;;;;;;;;;4989879;28;20523;-74
2022/08/02 00:21:19;;;;;;;13.67;5.03;;;;;;;;;;4996596;28;20423;-74
2022/08/02 00:23:45;;;;;;;16.97;5.63;;;;;;;;;;5010195;28;20433;-74
2022/08/02 00:26:11;;;;;;;13.10;5.43;;;;;;;;;;4992053;28;20826;-74
2022/08/02 00:28:37;;;;;;;16.67;6.13;;;22.70;64.90;;;;;;5005085;28;20468;-74
2022/08/02 00:31:03;;;;;;;14.17;6.10;;;22.80;64.60;;;;;;5010362;28;20436;-74
2022/08/02 00:33:29;;;;;;;13.33;6.03;;;;;;;;;;5010397;28;20208;-74
2022/08/02 00:35:54;;;;;;;13.37;5.80;;;23.00;62.20;;;;;;4997270;28;20236;-74
2022/08/02 00:38:20;;;;;;;10.90;5.40;;;;;;;;;;5001271;28;20429;-74
2022/08/02 00:40:47;;;;;;;20.23;6.73;;;22.70;63.20;;;;;;4999186;28;20266;-74
2022/08/02 00:43:13;;;;;;;14.33;5.50;;;22.60;64.40;;;;;;4996977;28;20462;-74
2022/08/02 00:45:40;;;;;;;25.17;6.70;;;;;;;;;;4998847;28;21039;-74
2022/08/02 00:48:08;;;;;;;15.13;6.00;;;22.40;65.10;;;;;;4994389;28;20662;-74
2022/08/02 00:50:34;;;;;;;24.30;6.53;;;;;;;;;;5000025;28;20427;-74
2022/08/02 00:53:00;;;;;;;10.93;5.27;;;;;;;;;;5006199;28;20453;-74
2022/08/02 00:55:27;;;;;;;13.77;4.70;;;23.00;59.80;;;;;;4990427;28;20817;-74
2022/08/02 00:57:54;;;;;;;22.23;5.67;;;22.90;62.20;;;;;;4993941;28;20449;-74
2022/08/02 01:00:19;;;;;;;12.93;5.20;;;22.70;63.50;;;;;;4999979;28;20432;-74
2022/08/02 01:02:45;;;;;;;14.07;5.33;;;22.60;65.00;;;;;;4998808;28;20534;-74
2022/08/02 01:05:11;;;;;;;12.43;5.70;;;;;;;;;;4990095;28;20211;-74
2022/08/02 01:07:37;;;;;;;10.00;4.80;;;22.70;63.50;;;;;;4990228;28;20437;-74
2022/08/02 01:10:04;;;;;;;17.67;5.47;;;22.80;63.00;;;;;;4990383;28;20430;-74
2022/08/02 01:12:30;;;;;;;24.07;6.80;;;22.80;63.30;;;;;;4985685;28;20940;-74
2022/08/02 01:15:00;;;;;;;29.40;5.97;;;22.70;63.70;;;;;;4987668;28;20449;-74
2022/08/02 01:17:37;;;;;;;13.17;5.07;;;22.70;63.20;;;;;;4991099;28;20195;-74
2022/08/02 01:20:24;;;;;;;21.83;5.80;;;;;;;;;;4997778;28;20854;-74
2022/08/02 01:23:24;;;;;;;16.67;6.00;;;22.60;63.20;;;;;;4987624;28;20445;-74
2022/08/02 01:25:56;;;;;;;13.77;5.63;;;;;;;;;;5002557;28;20473;-74
2022/08/02 01:28:29;;;;;;;19.30;5.40;;;;;;;;;;4992234;28;20512;-74
2022/08/02 01:31:16;;;;;;;20.77;7.17;;;22.50;62.60;;;;;;4995927;28;20943;-74
2022/08/02 01:33:50;;;;;;;23.13;6.10;;;22.50;63.80;;;;;;4976282;28;20467;-74
2022/08/02 01:36:19;;;;;;;18.73;6.10;;;22.60;62.60;;;;;;4993553;28;20970;-74
2022/08/02 01:38:47;;;;;;;16.03;5.50;;;22.70;60.90;;;;;;4990810;28;20529;-74
2022/08/02 01:41:20;;;;;;;15.63;6.30;;;22.50;62.40;;;;;;4995031;28;20487;-74
2022/08/02 01:43:50;;;;;;;16.03;5.87;;;22.30;63.40;;;;;;5000899;28;20556;-74
2022/08/02 01:46:17;;;;;;;18.77;6.50;;;21.60;67.70;;;;;;5013035;28;20480;-74
2022/08/02 01:48:45;;;;;;;21.33;6.67;;;21.20;71.30;;;;;;5004647;28;20482;-74
2022/08/02 01:51:14;;;;;;;21.13;5.70;;;20.70;77.70;;;;;;4993000;28;20443;-73
2022/08/02 01:53:42;;;;;;;16.10;6.40;;;;;;;;;;5001727;28;20951;-74
2022/08/02 01:56:08;;;;;;;13.37;6.10;;;;;;;;;;5001432;28;21003;-74
2022/08/02 01:58:36;;;;;;;17.00;6.60;;;21.60;70.60;;;;;;4999679;28;20470;-74
2022/08/02 02:01:04;;;;;;;17.97;6.80;;;21.70;68.50;;;;;;4996924;28;20436;-74
2022/08/02 02:03:31;;;;;;;16.37;5.80;;;21.50;68.10;;;;;;4985480;28;20538;-74
2022/08/02 02:05:58;;;;;;;17.30;5.70;;;20.80;73.30;;;;;;4995280;28;20468;-74
2022/08/02 02:08:27;;;;;;;16.87;5.53;;;20.60;76.20;;;;;;5008422;28;20445;-74
2022/08/02 02:10:54;;;;;;;20.70;5.90;;;;;;;;;;4998861;28;20933;-74
2022/08/02 02:13:20;;;;;;;17.13;6.70;;;;;;;;;;4994523;28;20438;-74
2022/08/02 02:15:48;;;;;;;15.63;5.40;;;22.00;63.60;;;;;;5006576;28;20913;-74
2022/08/02 02:18:20;;;;;;;18.00;5.40;;;22.10;62.20;;;;;;4995490;28;20439;-74
2022/08/02 02:20:46;;;;;;;19.07;6.30;;;;;;;;;;4996225;28;20438;-74
2022/08/02 02:23:12;;;;;;;18.03;6.60;;;;;;;;;;5001084;28;20482;-74
2022/08/02 02:25:40;;;;;;;17.40;5.43;;;22.30;59.40;;;;;;5003892;28;20464;-74
2022/08/02 02:28:09;;;;;;;23.93;5.67;;;;;;;;;;5004959;28;20506;-74
2022/08/02 02:30:37;;;;;;;17.93;5.33;;;;;;;;;;4991567;28;20509;-74
2022/08/02 02:33:05;;;;;;;12.73;4.57;;;;;;;;;;5000662;28;20516;-74
2022/08/02 02:35:35;;;;;;;15.03;5.83;;;;;;;;;;4993688;28;20440;-74
2022/08/02 02:38:03;;;;;;;14.80;5.20;;;21.70;63.80;;;;;;4997881;28;20523;-74
2022/08/02 02:40:30;;;;;;;20.10;5.33;;;21.80;63.00;;;;;;5008864;28;20432;-74
2022/08/02 02:42:57;;;;;;;10.00;4.83;;;;;;;;;;4993719;28;20476;-74
2022/08/02 02:45:24;;;;;;;10.73;4.80;;;;;;;;;;5005715;28;20487;-74
2022/08/02 02:47:51;;;;;;;25.17;5.60;;;21.60;62.30;;;;;;4996387;28;20479;-74
2022/08/02 02:50:17;;;;;;;13.50;5.40;;;;;;;;;;4997071;28;20531;-74
2022/08/02 02:52:43;;;;;;;24.73;6.00;;;;;;;;;;4997711;28;20464;-74
2022/08/02 02:55:10;;;;;;;12.53;5.03;;;21.60;61.80;;;;;;4995360;28;20425;-74
2022/08/02 02:57:37;;;;;;;14.40;5.40;;;21.60;61.60;;;;;;5000930;28;20800;-73
2022/08/02 03:00:09;;;;;;;19.07;5.50;;;21.80;61.40;;;;;;5005109;28;20428;-73
2022/08/02 03:02:37;;;;;;;17.83;5.83;;;21.80;61.10;;;;;;4995942;28;20480;-74
2022/08/02 03:05:04;;;;;;;16.73;5.17;;;;;;;;;;4994575;28;20481;-74
2022/08/02 03:07:32;;;;;;;12.57;5.27;;;;;;;;;;4993254;28;20475;-74
2022/08/02 03:09:58;;;;;;;21.73;6.00;;;;;;;;;;4991955;28;20447;-74
2022/08/02 03:12:24;;;;;;;32.23;5.80;;;21.80;61.80;;;;;;5006411;28;20428;-74
2022/08/02 03:14:51;;;;;;;14.97;5.60;;;;;;;;;;4995766;28;20457;-74
2022/08/02 03:17:17;;;;;;;13.93;5.60;;;21.70;63.90;;;;;;4993986;28;20466;-74
2022/08/02 03:19:44;;;;;;;18.03;5.50;;;;;;;;;;4992847;28;20429;-74
2022/08/02 03:22:10;;;;;;;15.70;5.60;;;;;;;;;;5001184;28;20266;-74
2022/08/02 03:24:36;;;;;;;11.70;5.60;;;;;;;;;;4990354;28;21093;-74
2022/08/02 03:27:02;;;;;;;18.37;6.77;;;;;;;;;;4996602;28;20464;-74
2022/08/02 03:29:28;;;;;;;18.33;6.13;;;;;;;;;;5006028;28;20436;-74
2022/08/02 03:31:54;;;;;;;17.97;7.47;;;;;;;;;;4986846;28;20480;-74
2022/08/02 03:34:21;;;;;;;15.17;6.23;;;;;;;;;;4989981;28;20457;-74
2022/08/02 03:36:50;;;;;;;14.43;6.33;;;21.60;63.70;;;;;;4990724;28;20790;-74
2022/08/02 03:39:18;;;;;;;23.20;7.17;;;21.50;63.60;;;;;;4989649;28;20439;-74
2022/08/02 03:41:45;;;;;;;14.60;6.33;;;;;;;;;;5006164;28;20794;-74
2022/08/02 03:44:12;;;;;;;19.50;6.83;;;21.40;64.10;;;;;;5000014;28;20462;-74
2022/08/02 03:46:40;;;;;;;13.70;5.90;;;21.60;62.90;;;;;;4989740;28;20476;-74
2022/08/02 03:49:07;;;;;;;16.13;6.40;;;;;;;;;;5000540;28;20428;-74
2022/08/02 03:51:36;;;;;;;15.33;6.30;;;21.80;61.20;;;;;;4991951;28;20449;-74
2022/08/02 03:54:02;;;;;;;14.00;6.20;;;21.70;61.70;;;;;;4999584;28;20816;-74
2022/08/02 03:56:29;;;;;;;22.77;7.10;;;;;;;;;;4978254;28;20437;-74
2022/08/02 03:59:12;;;;;;;20.10;6.30;;;22.00;59.10;;;;;;4998774;28;20430;-74
2022/08/02 04:01:38;;;;;;;14.23;6.30;;;21.90;59.10;;;;;;5002812;28;20420;-74
2022/08/02 04:04:04;;;;;;;16.50;6.40;;;;;;;;;;5002325;28;20464;-74
2022/08/02 04:06:30;;;;;;;16.43;6.07;;;21.70;61.00;;;;;;4991759;28;20487;-74
2022/08/02 04:08:56;;;;;;;14.83;6.03;;;;;;;;;;4994553;28;20428;-74
2022/08/02 04:11:30;;;;;;;15.80;6.27;;;21.90;59.10;;;;;;4991918;28;20179;-74
2022/08/02 04:14:15;;;;;;;22.90;6.07;;;22.00;58.30;;;;;;5001336;28;20570;-74
2022/08/02 04:16:44;;;;;;;16.77;6.40;;;21.80;59.00;;;;;;4991870;28;20439;-74
2022/08/02 04:19:19;;;;;;;21.03;6.77;;;21.80;60.10;;;;;;5001025;28;20442;-74
2022/08/02 04:21:48;;;;;;;16.60;6.53;;;21.50;60.30;;;;;;4996527;28;20420;-74
2022/08/02 04:24:16;;;;;;;9.10;5.13;;;21.50;61.60;;;;;;4995372;28;20470;-74
2022/08/02 04:26:43;;;;;;;18.27;6.70;;;21.70;61.70;;;;;;4990663;28;20504;-74
2022/08/02 04:29:10;;;;;;;15.10;6.23;;;;;;;;;;5003075;28;20470;-74
2022/08/02 04:31:36;;;;;;;21.57;6.23;;;;;;;;;;4994181;28;20944;-74
2022/08/02 04:34:02;;;;;;;16.87;6.63;;;;;;;;;;5005151;28;20434;-74
2022/08/02 04:36:28;;;;;;;23.93;6.10;;;;;;;;;;5000963;28;20868;-74
2022/08/02 04:38:54;;;;;;;14.63;5.87;;;;;;;;;;4986356;28;20803;-74
2022/08/02 04:41:20;;;;;;;12.43;5.83;;;;;;;;;;4996336;28;20427;-74
2022/08/02 04:43:46;;;;;;;11.60;5.97;;;;;;;;;;4996617;28;20457;-74
2022/08/02 04:46:12;;;;;;;21.37;6.93;;;;;;;;;;5010603;28;21186;-74
2022/08/02 04:48:38;;;;;;;17.40;6.30;;;;;;;;;;4980212;28;20440;-74
2022/08/02 04:51:04;;;;;;;22.70;6.20;;;;;;;;;;5001928;28;20792;-74
2022/08/02 04:53:30;;;;;;;19.00;6.63;;;;;;;;;;5001102;28;20441;-74
2022/08/02 04:55:56;;;;;;;19.20;6.87;;;;;;;;;;4994459;28;20422;-73
2022/08/02 04:58:22;;;;;;;22.73;6.47;;;21.50;64.50;;;;;;5007291;28;20916;-74
2022/08/02 05:00:47;;;;;;;21.77;6.70;;;21.50;64.50;;;;;;4998690;28;20521;-74
2022/08/02 05:03:13;;;;;;;16.10;6.33;;;21.60;64.60;;;;;;4994266;28;20573;-74
2022/08/02 05:05:39;;;;;;;15.10;6.33;;;;;;;;;;5007092;28;20216;-74
2022/08/02 05:08:05;;;;;;;26.33;6.93;;;21.60;65.40;;;;;;4999850;28;20501;-73
2022/08/02 05:10:31;;;;;;;14.23;6.00;;;;;;;;;;5001347;28;20523;-74
2022/08/02 05:12:57;;;;;;;24.37;6.23;;;;;;;;;;5000256;28;20285;-74
2022/08/02 05:15:23;;;;;;;18.93;5.83;;;;;;;;;;4994810;28;20959;-74
2022/08/02 05:17:49;;;;;;;32.80;6.10;;;;;;;;;;5004271;28;20881;-74
2022/08/02 05:20:16;;;;;;;20.40;7.17;;;21.90;65.10;;;;;;4997767;28;21142;-74
2022/08/02 05:22:43;;;;;;;19.63;6.33;;;;;;;;;;4996362;28;20440;-74
2022/08/02 05:25:09;;;;;;;16.77;5.77;;;;;;;;;;4997110;28;20467;-73
2022/08/02 05:27:35;;;;;;;16.23;5.23;;;;;;;;;;5010883;28;20424;-74
2022/08/02 05:30:01;;;;;;;17.07;5.63;;;;;;;;;;4998502;28;20422;-74
2022/08/02 05:32:27;;;;;;;19.17;6.73;;;;;;;;;;4996703;28;20509;-74
2022/08/02 05:34:53;;;;;;;17.60;6.70;;;;;;;;;;5000062;28;20437;-74
2022/08/02 05:37:19;;;;;;;12.77;5.17;;;;;;;;;;5001191;28;21007;-73
2022/08/02 05:39:45;;;;;;;19.20;6.00;;;;;;;;;;5012723;28;20448;-74
2022/08/02 05:42:11;;;;;;;20.27;6.23;;;22.10;63.90;;;;;;5006959;28;20430;-74
2022/08/02 05:44:36;;;;;;;19.53;7.00;;;22.30;63.80;;;;;;4998209;28;20474;-74
2022/08/02 05:47:02;;;;;;;15.07;7.40;;;22.60;63.60;;;;;;4997150;28;20662;-73
2022/08/02 05:49:28;;;;;;;14.97;7.23;;;22.60;60.70;;;;;;4994714;28;20187;-74
2022/08/02 05:51:54;;;;;;;25.43;8.33;;;;;;;;;;4991576;28;20185;-74
2022/08/02 05:54:26;;;;;;;14.97;6.57;;;;;;;;;;4996674;28;20216;-74
2022/08/02 05:57:04;;;;;;;17.00;7.03;;;;;;;;;;5003892;28;20416;-74
2022/08/02 05:59:39;;;;;;;18.60;7.30;;;22.40;60.50;;;;;;5005364;28;20442;-73
2022/08/02 06:02:37;;;;;;;24.73;8.93;;;22.20;59.30;;;;;;4990884;28;20443;-74
2022/08/02 06:05:10;;;;;;;12.13;5.93;;;22.00;59.10;;;;;;4996734;28;20462;-73
2022/08/02 06:07:36;;;;;;;15.10;5.50;;;;;;;;;;4996131;28;20426;-73
2022/08/02 06:10:04;;;;;;;18.67;6.10;;;;;;;;;;5004241;28;20432;-73
2022/08/02 06:12:31;;;;;;;18.00;6.40;;;;;;;;;;4995261;28;21017;-73
2022/08/02 06:14:59;;;;;;;16.20;5.80;;;;;;;;;;4996138;28;20432;-73
2022/08/02 06:17:25;;;;;;;16.50;5.57;;;;;;;;;;5013292;28;20420;-73
2022/08/02 06:19:59;;;;;;;18.10;6.60;;;21.40;68.80;;;;;;4995935;28;20435;-73
2022/08/02 06:22:28;;;;;;;19.77;6.57;;;;;;;;;;4980175;28;20475;-74
2022/08/02 06:24:55;;;;;;;32.63;8.60;;;21.30;70.10;;;;;;4993953;28;21149;-73
2022/08/02 06:27:25;;;;;;;22.13;6.53;;;20.80;71.80;;;;;;4995736;28;20984;-73
2022/08/02 06:29:52;;;;;;;21.37;6.90;;;20.40;75.10;;;;;;5001428;28;20419;-73
2022/08/02 06:32:18;;;;;;;28.50;8.97;;;20.50;75.30;;;;;;4991752;28;20459;-73
2022/08/02 06:34:45;;;;;;;23.70;9.70;;;;;;;;;;4984297;28;20472;-73
2022/08/02 06:37:20;;;;;;;15.63;8.90;;;21.00;72.50;;;;;;4993611;28;20514;-73
2022/08/02 06:39:51;;;;;;;20.87;9.17;;;;;;;;;;4997774;28;20427;-73
2022/08/02 06:42:22;;;;;;;16.80;7.90;;;21.80;65.30;;;;;;4998133;28;20439;-74
2022/08/02 06:44:48;;;;;;;16.63;8.30;;;22.00;65.30;;;;;;4992044;28;20475;-73
2022/08/02 06:47:14;;;;;;;16.60;7.83;;;21.80;65.40;;;;;;5010645;28;20798;-73
2022/08/02 06:49:40;;;;;;;21.87;8.53;;;22.10;62.80;;;;;;4993382;28;20444;-73
2022/08/02 06:52:06;;;;;;;19.80;7.50;;;;;;;;;;4985130;28;20183;-73
2022/08/02 06:54:33;;;;;;;23.33;8.13;;;22.00;66.00;;;;;;4993382;28;20839;-73
2022/08/02 06:56:59;;;;;;;22.03;8.70;;;;;;;;;;4996665;28;20455;-73
2022/08/02 06:59:24;;;;;;;22.63;9.03;;;22.50;63.40;;;;;;5003766;28;20416;-73
2022/08/02 07:01:50;;;;;;;20.77;8.07;;;22.70;60.50;;;;;;5011348;28;20822;-74
2022/08/02 07:04:16;;;;;;;18.43;8.13;;;;;;;;;;5003090;28;20216;-74
2022/08/02 07:06:42;;;;;;;23.33;7.80;;;;;;;;;;5010645;28;20220;-73
2022/08/02 07:09:08;;;;;;;17.63;7.00;;;;;;;;;;4998671;28;20991;-73
2022/08/02 07:11:34;;;;;;;21.90;8.40;;;;;;;;;;4994984;28;20430;-73
2022/08/02 07:14:00;;;;;;;19.43;8.50;;;;;;;;;;5005238;23;20507;-67
2022/08/02 07:16:25;;;;;;;10.80;7.40;;;23.20;58.20;;;;;;4998752;28;20425;-69
2022/08/02 07:18:51;;;;;;;15.13;7.47;;;23.30;58.20;;;;;;5007754;28;20935;-69
2022/08/02 07:21:17;;;;;;;17.43;7.13;;;23.20;54.70;;;;;;5001387;28;20600;-69
2022/08/02 07:23:42;;;;;;;14.80;6.57;;;23.40;56.70;;;;;;5004718;28;20203;-72
2022/08/02 07:26:08;;;;;;;15.00;6.70;;;;;;;;;;4991149;28;20214;-68
2022/08/02 07:28:34;;;;;;;10.13;5.40;;;23.00;50.70;;;;;;5011412;28;20212;-69
2022/08/02 07:30:59;;;;;;;16.43;6.63;;;22.80;53.00;;;;;;5011556;28;20785;-69
2022/08/02 07:33:26;;;;;;;12.47;6.13;;;23.30;58.50;;;;;;5003807;28;20205;-69
2022/08/02 07:35:52;;;;;;;10.60;4.50;;;22.90;50.80;;;;;;4997437;28;20673;-69
2022/08/02 07:38:21;;;;;;;9.40;4.67;;;22.70;52.80;;;;;;4999516;28;20449;-69
2022/08/02 07:40:47;;;;;;;17.40;5.93;;;22.60;54.10;;;;;;5003545;28;20469;-69
2022/08/02 07:43:12;;;;;;;14.70;5.40;;;23.20;53.80;;;;;;5002180;28;20468;-69
2022/08/02 07:45:38;;;;;;;17.00;5.30;;;23.20;53.60;;;;;;4990378;28;20210;-69
2022/08/02 07:48:04;;;;;;;10.60;5.30;;;23.70;50.60;;;;;;4999271;28;20182;-69
2022/08/02 07:50:30;;;;;;;11.63;4.50;;;23.70;50.60;;;;;;5002325;28;20258;-69
2022/08/02 07:52:56;;;;;;;13.80;5.10;;;23.60;48.90;;;;;;5003335;28;20505;-69
2022/08/02 07:55:21;;;;;;;12.70;4.67;;;23.80;48.20;;;;;;4999755;28;20192;-69
2022/08/02 07:57:47;;;;;;;12.80;5.30;;;23.80;47.40;;;;;;4994485;28;20243;-68
2022/08/02 08:00:14;;;;;;;9.13;5.20;;;23.80;48.40;;;;;;4991869;28;20250;-70
2022/08/02 08:02:40;;;;;;;10.03;5.00;;;24.60;44.40;;;;;;4991382;28;20603;-70
2022/08/02 08:05:07;;;;;;;8.77;4.60;;;24.60;45.10;;;;;;4991635;28;20475;-70
2022/08/02 08:07:33;;;;;;;9.60;4.60;;;24.60;43.00;;;;;;4991778;28;20943;-70
2022/08/02 08:09:59;;;;;;;10.63;5.13;;;24.50;43.00;;;;;;4984532;28;20477;-70
2022/08/02 08:12:25;;;;;;;15.90;5.67;;;24.80;41.90;;;;;;4999449;28;20463;-70
2022/08/02 08:14:51;;;;;;;10.37;5.67;;;23.90;44.70;;;;;;4992301;28;20482;-70
2022/08/02 08:17:17;;;;;;;10.93;5.53;;;23.30;47.30;;;;;;4991444;28;20741;-70
2022/08/02 08:19:43;;;;;;;17.20;7.93;;;23.90;47.10;;;;;;4996024;28;20192;-70
2022/08/02 08:22:08;;;;;;;17.00;7.97;;;24.20;48.50;;;;;;4985803;28;20985;-70
2022/08/02 08:24:34;;;;;;;15.47;7.30;;;24.50;43.10;;;;;;4990137;28;20207;-69
2022/08/02 08:26:59;;;;;;;19.13;7.30;;;24.20;44.10;;;;;;4996432;28;20188;-69
2022/08/02 08:29:25;;;;;;;16.80;7.17;;;24.00;44.50;;;;;;4996239;28;20181;-69
2022/08/02 08:31:51;;;;;;;16.20;7.90;;;24.30;46.20;;;;;;4988355;28;21107;-69
2022/08/02 08:34:17;;;;;;;14.27;7.20;;;24.50;48.00;;;;;;4989659;28;20202;-69
2022/08/02 08:36:42;;;;;;;14.73;6.60;;;24.70;44.30;;;;;;5000288;28;20424;-69
2022/08/02 08:39:08;;;;;;;12.73;6.87;;;25.10;48.20;;;;;;5001187;28;20196;-69
2022/08/02 08:41:36;;;;;;;14.33;5.70;;;25.10;48.00;;;;;;4990846;28;20212;-68
2022/08/02 08:44:02;;;;;;;12.57;6.80;;;25.00;41.30;;;;;;4986673;28;20452;-69
2022/08/02 08:46:29;;;;;;;18.20;6.77;;;24.50;43.20;;;;;;4992672;28;20885;-69
2022/08/02 08:49:04;;;;;;;16.03;6.57;;;24.10;45.10;;;;;;4991702;28;20191;-69
2022/08/02 08:51:35;;;;;;;12.33;5.43;;;24.20;44.20;;;;;;4995725;28;20427;-69
2022/08/02 08:54:03;;;;;;;13.93;5.80;;;24.20;43.90;;;;;;4987752;28;21042;-69
2022/08/02 08:56:32;;;;;;;9.50;6.30;;;24.90;42.30;;;;;;4989805;28;20494;-70
2022/08/02 08:58:58;;;;;;;11.73;6.73;;;25.40;41.00;;;;;;4995473;28;20464;-70
2022/08/02 09:01:24;;;;;;;10.40;6.53;;;25.90;40.10;;;;;;5005668;28;20436;-70
2022/08/02 09:03:50;;;;;;;14.83;6.50;;;25.80;38.70;;;;;;4991688;28;20471;-70
2022/08/02 09:06:15;;;;;;;10.53;5.43;;;25.70;40.70;;;;;;4993502;28;20200;-70
2022/08/02 09:08:41;;;;;;;11.00;4.80;;;25.30;39.40;;;;;;4996504;28;20181;-69
2022/08/02 09:11:21;;;;;;;16.87;7.80;;;24.70;41.70;;;;;;4990114;28;20209;-70
2022/08/02 09:13:57;;;;;;;13.97;6.70;;;24.70;42.40;;;;;;4986572;28;20217;-70
2022/08/02 09:17:05;;;;;;;14.50;5.70;;;25.20;39.30;;;;;;4989727;28;20460;-70
2022/08/02 09:19:30;;;;;;;14.70;6.50;;;25.40;39.80;;;;;;4913571;29;20444;-74
2022/08/02 09:22:05;;;;;;;10.70;6.67;;;26.00;38.90;;;;;;4913019;29;20481;-71
2022/08/02 09:24:42;;;;;;;11.30;4.60;;;25.50;37.60;;;;;;4910503;29;20220;-70
2022/08/02 09:27:15;;;;;;;17.50;4.67;;;25.00;39.10;;;;;;4918186;29;20427;-69
2022/08/02 09:29:52;;;;;;;9.33;4.70;;;24.70;39.00;;;;;;4926587;29;20431;-70
2022/08/02 09:32:18;;;;;;;10.43;4.43;;;24.80;37.10;;;;;;4915486;29;20573;-70
2022/08/02 09:34:48;;;;;;;8.03;4.90;;;24.80;38.20;;;;;;4914284;29;20476;-70
2022/08/02 09:37:26;;;;;;;8.07;4.40;;;25.40;37.30;;;;;;4912434;29;20884;-71
2022/08/02 09:39:52;;;;;;;7.40;4.20;;;;;;;;;;4910880;29;20546;-68
2022/08/02 09:42:18;;;;;;;17.00;5.80;;;25.30;37.50;;;;;;4911348;29;20713;-69
2022/08/02 09:44:53;;;;;;;10.23;5.00;;;25.30;38.10;;;;;;4908342;29;20495;-70
2022/08/02 09:47:19;;;;;;;17.60;5.63;;;25.90;37.80;;;;;;4906935;29;20198;-70
2022/08/02 09:49:46;;;;;;;13.10;5.00;;;26.70;36.50;;;;;;4913398;29;20443;-70
2022/08/02 09:52:12;;;;;;;9.50;4.93;;;27.20;36.60;;;;;;4924414;29;20184;-70
2022/08/02 09:54:40;;;;;;;10.13;5.00;;;27.40;34.30;;;;;;4952572;28;20452;-70
2022/08/02 09:57:06;;;;;;;7.60;4.47;;;27.50;36.50;;;;;;5004084;28;20433;-71
2022/08/02 09:59:32;;;;;;;12.53;4.60;;;27.40;34.40;;;;;;5003113;28;20472;-70
2022/08/02 10:01:59;;;;;;;8.27;4.80;;;27.30;32.00;;;;;;4994719;28;20456;-70
2022/08/02 10:04:28;;;;;;;10.70;4.77;;;27.10;34.00;;;;;;5004923;28;20263;-70
2022/08/02 10:06:54;;;;;;;7.43;4.40;;;27.40;31.80;;;;;;5007445;28;20432;-70
2022/08/02 10:09:21;;;;;;;10.20;4.43;;;27.20;30.80;;;;;;5010678;28;20424;-70
2022/08/02 10:11:47;;;;;;;12.10;5.10;;;26.30;31.50;;;;;;5001837;28;20216;-69
2022/08/02 10:14:13;;;;;;;10.07;4.70;;;26.00;34.20;;;;;;5009856;28;20460;-70
2022/08/02 10:16:41;;;;;;;7.97;4.23;;;25.90;33.50;;;;;;5005161;28;20977;-69
2022/08/02 10:19:07;;;;;;;9.13;4.23;;;26.70;33.40;;;;;;5005955;28;20181;-70
2022/08/02 10:21:32;;;;;;;9.87;4.80;;;26.90;30.00;;;;;;5013115;28;20511;-70
2022/08/02 10:24:25;;;;;;;8.17;4.00;;;26.10;30.60;;;;;;5000012;28;20531;-70
2022/08/02 10:26:52;;;;;;;5.53;3.70;;;26.10;32.00;;;;;;5002371;28;20166;-70
2022/08/02 10:29:19;;;;;;;6.80;3.97;;;26.40;30.30;;;;;;4994766;28;20421;-70
2022/08/02 10:31:54;;;;;;;6.83;4.00;;;26.40;32.00;;;;;;4994300;28;20413;-69
2022/08/02 10:34:26;;;;;;;12.57;4.37;;;27.50;34.80;;;;;;5001659;28;20441;-70
2022/08/02 10:36:52;;;;;;;5.20;3.37;;;27.90;30.40;;;;;;5006302;28;20443;-70
2022/08/02 10:39:18;;;;;;;6.17;3.67;;;27.90;30.80;;;;;;5013315;28;20431;-70
2022/08/02 10:41:49;;;;;;;7.27;3.90;;;28.10;29.10;;;;;;5009051;28;20421;-69
2022/08/02 10:44:31;;;;;;;8.47;3.73;;;28.40;26.80;;;;;;5009338;28;20197;-70
2022/08/02 10:47:17;;;;;;;5.70;3.53;;;28.40;27.90;;;;;;4993484;28;20923;-70
2022/08/02 10:49:54;;;;;;;7.77;4.07;;;28.90;27.80;;;;;;4974487;28;21008;-70
2022/08/02 10:52:27;;;;;;;7.50;4.17;;;29.30;27.50;;;;;;4998861;28;20411;-70
2022/08/02 10:55:23;;;;;;;8.87;3.87;;;29.70;28.70;;;;;;4999085;28;20436;-70
2022/08/02 10:58:15;;;;;;;9.97;4.27;;;29.80;28.00;;;;;;4915924;29;21030;-70
2022/08/02 11:00:40;;;;;;;5.43;3.60;;;29.70;26.10;;;;;;4904973;29;20611;-70
2022/08/02 11:03:33;;;;;;;5.77;3.77;;;28.70;27.60;;;;;;4917942;29;20960;-70
2022/08/02 11:06:09;;;;;;;8.70;4.03;;;28.70;27.50;;;;;;4917709;29;20587;-70
2022/08/02 11:08:35;;;;;;;7.23;4.00;;;29.30;26.90;;;;;;4913481;29;20455;-70
2022/08/02 11:11:21;;;;;;;8.90;4.43;;;29.70;25.40;;;;;;4918793;29;20487;-70
2022/08/02 11:14:07;;;;;;;5.47;3.77;;;29.70;26.30;;;;;;4905629;29;20504;-70
2022/08/02 11:17:04;;;;;;;7.80;3.90;;;29.20;25.10;;;;;;4922479;29;20462;-70
2022/08/02 11:19:30;;;;;;;5.87;3.70;;;29.20;25.10;;;;;;4852343;29;20535;-70
2022/08/02 11:22:03;;;;;;;7.37;4.33;;;28.50;25.00;;;;;;4921147;29;20448;-70
2022/08/02 11:24:31;;;;;;;10.00;4.00;;;28.00;25.10;;;;;;4915198;29;20476;-69
2022/08/02 11:26:59;;;;;;;7.00;3.63;;;27.10;28.00;;;;;;4923587;29;20559;-68
2022/08/02 11:29:39;;;;;;;10.30;4.33;;;27.10;28.40;;;;;;4916635;29;20448;-68
2022/08/02 11:32:13;;;;;;;7.70;3.10;;;28.20;27.20;;;;;;4921958;29;20994;-69
2022/08/02 11:34:41;;;;;;;6.93;3.60;;;29.20;25.10;;;;;;4963252;28;21005;-70
2022/08/02 11:37:07;;;;;;;7.30;3.90;;;30.00;24.00;;;;;;4990335;28;20518;-70
2022/08/02 11:39:32;;;;;;;5.63;3.60;;;30.70;23.40;;;;;;4996953;28;20944;-70
2022/08/02 11:41:59;;;;;;;8.33;3.70;;;30.90;21.40;;;;;;4990107;28;20189;-70
2022/08/02 11:44:27;;;;;;;6.73;3.00;;;31.40;23.20;;;;;;4993721;28;20603;-69
2022/08/02 11:46:53;;;;;;;15.23;3.70;;;32.60;19.60;;;;;;4986191;28;20441;-70
2022/08/02 11:49:19;;;;;;;6.50;3.47;;;31.40;20.70;;;;;;4996587;28;20464;-67
2022/08/02 11:52:05;;;;;;;6.33;3.20;;;31.00;21.10;;;;;;4998473;28;20511;-70
2022/08/02 11:54:33;;;;;;;14.07;3.00;;;30.60;21.30;;;;;;4991156;28;20235;-70
2022/08/02 11:57:19;;;;;;;13.00;3.00;;;31.30;21.70;;;;;;4987210;28;20429;-70
2022/08/02 11:59:50;;;;;;;6.63;3.90;;;32.20;19.30;;;;;;4993247;28;20432;-70
2022/08/02 12:02:18;;;;;;;8.40;4.13;;;31.90;19.50;;;;;;4991142;28;20572;-70
2022/08/02 12:05:10;;;;;;;6.80;3.60;;;31.70;21.00;;;;;;4995885;28;20852;-70
2022/08/02 12:07:37;;;;;;;13.43;3.53;;;32.70;21.90;;;;;;4989145;28;20440;-70
2022/08/02 12:10:09;;;;;;;4.83;3.00;;;33.60;18.40;;;;;;4993427;28;20919;-71
2022/08/02 12:12:59;;;;;;;6.03;3.20;;;34.20;19.00;;;;;;4997342;28;20470;-70
2022/08/02 12:15:43;;;;;;;7.83;3.60;;;34.50;17.20;;;;;;4985254;28;20807;-70
2022/08/02 12:20:55;;;;;;;6.47;3.63;;;32.00;19.70;;;;;;4995011;28;20475;-70
2022/08/02 12:23:21;;;;;;;9.93;4.13;;;32.70;19.90;;;;;;4998231;28;20448;-70
2022/08/02 12:25:59;;;;;;;6.10;3.47;;;33.00;18.90;;;;;;4998189;28;20464;-71
2022/08/02 12:28:25;;;;;;;6.23;3.30;;;32.60;18.50;;;;;;4991756;28;20796;-70
2022/08/02 12:30:56;;;;;;;4.90;3.37;;;33.70;18.10;;;;;;5000050;28;20506;-70
2022/08/02 12:33:23;;;;;;;5.90;3.23;;;34.30;16.90;;;;;;4998110;28;20649;-70
2022/08/02 12:35:49;;;;;;;5.07;3.23;;;33.10;18.20;;;;;;5009333;28;20474;-70
2022/08/02 12:38:15;;;;;;;5.20;2.87;;;32.40;17.90;;;;;;5010806;28;20420;-70
2022/08/02 12:40:41;;;;;;;7.10;3.03;;;33.80;17.20;;;;;;5010247;28;20435;-70
2022/08/02 12:43:16;;;;;;;5.43;3.10;;;34.50;15.00;;;;;;5002408;28;20181;-70
2022/08/02 12:46:14;;;;;;;6.10;3.27;;;34.60;15.10;;;;;;4977844;28;20460;-70
2022/08/02 12:48:40;;;;;;;3.80;2.67;;;33.30;16.10;;;;;;4999375;28;20432;-71
2022/08/02 12:51:18;;;;;;;6.60;3.30;;;34.50;17.20;;;;;;4999548;28;20978;-70
2022/08/02 12:53:43;;;;;;;6.73;2.83;;;34.10;15.60;;;;;;4991709;28;20205;-70
2022/08/02 12:56:09;;;;;;;4.83;3.33;;;32.80;16.50;;;;;;4989477;28;20438;-70
2022/08/02 12:58:51;;;;;;;8.53;2.97;;;32.10;16.90;;;;;;4989906;28;20189;-69
2022/08/02 13:01:22;;;;;;;8.33;2.67;;;32.60;18.40;;;;;;4989154;28;20188;-70
2022/08/02 13:03:47;;;;;;;6.50;3.30;;;31.90;17.50;;;;;;4987951;28;20554;-70
2022/08/02 13:06:14;;;;;;;6.97;3.10;;;31.80;19.10;;;;;;4992295;28;20510;-68
2022/08/02 13:08:40;;;;;;;5.30;3.37;;;32.00;19.50;;;;;;4987651;28;20839;-70
2022/08/02 13:11:05;;;;;;;6.43;3.00;;;31.80;17.80;;;;;;4990074;28;20437;-70
2022/08/02 13:13:32;;;;;;;15.30;4.65;;;;;;;;;;5005611;23;20852;-74
2022/08/02 13:15:58;;;;;;;5.37;2.50;;;;;;;;;;4952823;28;20195;-74
2022/08/02 13:18:24;;;;;;;22.87;5.87;;;;;;;;;;4950886;28;21166;-74
2022/08/02 13:20:50;;;;;;;11.90;4.50;;;;;;;;;;4952498;28;20865;-78
2022/08/02 13:23:16;;;;;;;13.60;3.50;;;;;;;;;;4957450;28;21311;-74